CYVR/YVR METAR and TAF weather

Enter ICAO airport designator
Station Type Date Time Source
CYVR METAR 2019/02/20 07:19 UTC NOAA

CYVR 200719Z 30009KT 12SM SCT009 BKN016 OVC019 02/01 A2985 RMK SC4SC2SC2 SLP110


Station Type Date Time Source
CYVR Decoded METAR 2019/02/20 07:19 UTC NOAA

Vancouver International Air-Port, B. C., Canada (CYVR) 49-11N 123-10W 2M
Feb 20, 2019 - 02:19 AM EST / 2019.02.20 0719 UTC
Wind: from the WNW (300 degrees) at 10 MPH (9 KT):0
Visibility: 12 mile(s):0
Sky conditions: overcast
Temperature: 35 F (2 C)
Windchill: 26 F (-3 C):1
Dew Point: 33 F (1 C)
Relative Humidity: 93%
Pressure (altimeter): 29.85 in. Hg (1010 hPa)
ob: CYVR 200719Z 30009KT 12SM SCT009 BKN016 OVC019 02/01 A2985 RMK SC4SC2SC2 SLP110
cycle: 7

Station Type Date Time Source
CYVR TAF 2019/02/20 06:39 UTC NOAA

TAF TAF CYVR 200538Z 2006/2112 VRB03KT P6SM SCT012 BKN030
TEMPO 2006/2011 5SM -RA BR SCT008 OVC012
BECMG 2006/2007 30008KT
FM201100 VRB03KT P6SM SCT030
TEMPO 2011/2015 SCT015 BKN030
FM201500 06006KT P6SM SCT030 BKN100
BECMG 2019/2021 28012KT
FM210500 VRB03KT P6SM SKC
RMK NXT FCST BY 200900Z


Example: see airport list